Time;durP1;ratioP1;P1;durP2;ratioP2;P2;SDS_P1;SDS_P2;PMS_P1;PMS_P2;Temp;Humidity;BMP_temperature;BMP_pressure;BME280_temperature;BME280_humidity;BME280_pressure;Samples;Min_cycle;Max_cycle;Signal;HPM_P1;HPM_P2
2021/05/25 00:00:00;;;;;;;2.50;1.77;;;;;;;17.49;51.59;100462.59;694636;28;16133;-63
2021/05/25 00:00:24;;;;;;;2.30;1.73;;;;;;;17.48;51.56;100461.78;694512;28;5414;-64
2021/05/25 00:00:45;;;;;;;1.58;1.48;;;;;;;17.48;51.74;100466.41;691790;28;92296;-63
2021/05/25 00:01:06;;;;;;;1.73;1.40;;;;;;;17.48;51.86;100466.41;694638;28;11206;-63
2021/05/25 00:01:27;;;;;;;2.63;1.48;;;;;;;17.48;51.74;100466.41;694275;28;22537;-63
2021/05/25 00:01:49;;;;;;;1.50;1.40;;;;;;;17.48;51.52;100463.69;694180;28;21068;-63
2021/05/25 00:02:10;;;;;;;1.42;1.42;;;;;;;17.48;51.91;100464.50;694301;28;23429;-63
2021/05/25 00:02:31;;;;;;;1.95;1.50;;;;;;;17.49;51.92;100468.06;694240;28;22420;-63
2021/05/25 00:02:53;;;;;;;1.33;1.30;;;;;;;17.48;51.75;100474.59;693854;28;23585;-63
2021/05/25 00:03:15;;;;;;;1.73;1.63;;;;;;;17.51;51.70;100470.56;691335;28;59237;-63
2021/05/25 00:03:36;;;;;;;1.33;1.30;;;;;;;17.51;51.77;100468.69;692420;28;22278;-63
2021/05/25 00:03:57;;;;;;;2.20;1.40;;;;;;;17.49;51.80;100470.78;693723;28;23510;-63
2021/05/25 00:04:18;;;;;;;1.48;1.40;;;;;;;17.47;52.21;100468.28;694049;28;18888;-63
2021/05/25 00:04:39;;;;;;;1.60;1.50;;;;;;;17.46;51.99;100474.81;693336;28;23464;-64
2021/05/25 00:05:00;;;;;;;1.60;1.50;;;;;;;17.46;52.14;100465.78;693351;28;22405;-63
2021/05/25 00:05:25;;;;;;;1.45;1.35;;;;;;;17.46;52.00;100466.63;693447;28;44477;-63
2021/05/25 00:05:47;;;;;;;3.47;1.30;;;;;;;17.45;52.04;100469.59;691735;28;90194;-63
2021/05/25 00:06:08;;;;;;;1.50;1.40;;;;;;;17.46;52.04;100477.56;693100;28;45291;-63
2021/05/25 00:06:29;;;;;;;1.40;1.30;;;;;;;17.45;52.32;100470.41;694377;28;24550;-64
2021/05/25 00:06:50;;;;;;;2.00;1.20;;;;;;;17.44;52.08;100473.38;692848;28;46289;-63
2021/05/25 00:07:11;;;;;;;1.27;1.27;;;;;;;17.43;52.71;100480.75;693925;28;21480;-63
2021/05/25 00:07:33;;;;;;;1.50;1.40;;;;;;;17.42;52.66;100479.06;694918;28;1097;-63
2021/05/25 00:07:55;;;;;;;1.55;1.45;;;;;;;17.40;52.28;100472.19;693764;28;23483;-63
2021/05/25 00:08:16;;;;;;;2.00;1.42;;;;;;;17.39;52.47;100481.44;693452;28;45271;-63
2021/05/25 00:08:38;;;;;;;2.00;1.40;;;;;;;17.39;52.65;100482.25;693749;28;36037;-63
2021/05/25 00:08:59;;;;;;;2.58;1.40;;;;;;;17.37;52.65;100480.84;694392;28;22392;-63
2021/05/25 00:09:20;;;;;;;3.58;1.45;;;;;;;17.36;52.49;100477.25;693405;28;21663;-64
2021/05/25 00:09:41;;;;;;;1.38;1.38;;;;;;;17.36;52.53;100479.16;694548;28;1593;-63
2021/05/25 00:10:04;;;;;;;1.50;1.40;;;;;;;17.35;52.62;100489.25;693447;28;1762;-63
2021/05/25 00:10:28;;;;;;;1.70;1.60;;;;;;;17.35;52.27;100491.13;691466;28;70258;-63
2021/05/25 00:10:49;;;;;;;1.60;1.50;;;;;;;17.33;52.47;100485.06;691234;28;92168;-63
2021/05/25 00:11:10;;;;;;;1.55;1.45;;;;;;;17.33;52.53;100483.16;694206;28;23387;-63
2021/05/25 00:11:31;;;;;;;1.48;1.42;;;;;;;17.34;52.26;100486.75;694326;28;22424;-63
2021/05/25 00:11:53;;;;;;;1.67;1.58;;;;;;;17.31;52.29;100484.47;695439;28;1621;-63
2021/05/25 00:12:14;;;;;;;1.30;1.20;;;;;;;17.29;52.80;100482.78;694365;28;44098;-62
2021/05/25 00:12:35;;;;;;;1.38;1.27;;;;;;;17.30;52.78;100494.53;694254;28;21489;-63
2021/05/25 00:12:58;;;;;;;1.50;1.40;;;;;;;17.28;52.58;100492.03;694892;28;15541;-63
2021/05/25 00:13:19;;;;;;;1.60;1.50;;;;;;;17.26;53.14;100488.72;693972;28;58771;-63
2021/05/25 00:13:40;;;;;;;1.40;1.40;;;;;;;17.28;52.29;100488.47;695079;28;22400;-63
2021/05/25 00:14:03;;;;;;;1.58;1.40;;;;;;;17.29;52.50;100482.78;693927;28;24435;-63
2021/05/25 00:14:25;;;;;;;1.65;1.30;;;;;;;17.27;52.50;100495.00;692398;28;66791;-63
2021/05/25 00:14:46;;;;;;;3.10;1.50;;;;;;;17.28;52.31;100492.03;694151;28;22373;-63
2021/05/25 00:15:09;;;;;;;2.17;1.70;;;;;;;17.29;52.31;100490.16;693660;28;46418;-63
2021/05/25 00:15:33;;;;;;;1.65;1.33;;;;;;;17.28;52.13;100483.84;694870;28;18725;-63
2021/05/25 00:15:54;;;;;;;1.50;1.40;;;;;;;17.26;51.99;100483.25;693564;28;63312;-63
2021/05/25 00:16:15;;;;;;;1.40;1.40;;;;;;;17.26;51.91;100493.34;695288;28;12439;-62
2021/05/25 00:16:37;;;;;;;1.15;1.15;;;;;;;17.25;51.83;100488.94;694954;28;21498;-63
2021/05/25 00:16:58;;;;;;;1.27;1.17;;;;;;;17.24;52.19;100493.56;693718;28;43559;-63
2021/05/25 00:17:19;;;;;;;1.55;1.45;;;;;;;17.24;52.27;100493.56;694272;28;21562;-63
2021/05/25 00:17:40;;;;;;;2.50;1.50;;;;;;;17.28;52.08;100505.69;694770;28;2605;-63
2021/05/25 00:18:03;;;;;;;1.60;1.20;;;;;;;17.28;52.11;100492.03;693343;28;44385;-63
2021/05/25 00:18:24;;;;;;;1.90;1.38;;;;;;;17.29;51.83;100492.88;691559;28;91565;-63
2021/05/25 00:18:45;;;;;;;1.63;1.40;;;;;;;17.27;51.33;100495.84;694170;28;22400;-63
2021/05/25 00:19:07;;;;;;;3.60;1.35;;;;;;;17.25;51.97;100494.38;695019;28;23060;-63
2021/05/25 00:19:28;;;;;;;3.53;1.42;;;;;;;17.23;51.72;100494.63;694463;28;22416;-63
2021/05/25 00:19:49;;;;;;;1.27;1.25;;;;;;;17.23;51.72;100502.81;694266;28;46343;-63
2021/05/25 00:20:12;;;;;;;1.80;1.70;;;;;;;17.20;51.39;100506.00;694926;28;14482;-63
2021/05/25 00:20:38;;;;;;;2.40;1.30;;;;;;;17.19;51.57;100504.31;693346;28;61750;-63
2021/05/25 00:21:00;;;;;;;1.30;1.20;;;;;;;17.17;51.90;100506.44;694851;28;2484;-63
2021/05/25 00:21:25;;;;;;;1.30;1.20;;;;;;;17.15;51.78;100502.25;692547;28;60338;-63
2021/05/25 00:21:48;;;;;;;2.30;1.70;;;;;;;17.14;51.88;100501.44;694736;28;1544;-63
2021/05/25 00:22:12;;;;;;;2.25;1.30;;;;;;;17.15;52.01;100505.00;694644;28;1612;-63
2021/05/25 00:22:33;;;;;;;1.30;1.20;;;;;;;17.16;51.71;100503.94;691620;28;89748;-63
2021/05/25 00:22:56;;;;;;;1.50;1.40;;;;;;;17.14;51.84;100504.16;694735;28;1276;-63
2021/05/25 00:23:17;;;;;;;1.50;1.30;;;;;;;17.14;51.87;100506.06;694877;28;6843;-63
2021/05/25 00:23:39;;;;;;;1.40;1.40;;;;;;;17.13;51.46;100507.94;694402;28;1755;-63
2021/05/25 00:24:00;;;;;;;1.58;1.25;;;;;;;17.10;51.70;100506.53;693805;28;37236;-63
2021/05/25 00:24:22;;;;;;;2.05;1.20;;;;;;;17.09;51.54;100504.84;694975;28;23556;-63
2021/05/25 00:24:43;;;;;;;5.22;1.30;;;;;;;17.10;51.56;100505.69;694574;28;23418;-63
2021/05/25 00:25:05;;;;;;;1.30;1.30;;;;;;;17.09;51.57;100509.47;695037;28;22300;-63
2021/05/25 00:25:26;;;;;;;1.30;1.10;;;;;;;17.09;51.32;100509.47;693606;28;69273;-63
2021/05/25 00:25:48;;;;;;;1.30;1.20;;;;;;;17.07;51.50;100512.44;693978;28;43330;-63
2021/05/25 00:26:09;;;;;;;1.30;1.20;;;;;;;17.07;51.22;100526.06;693889;28;22534;-63
2021/05/25 00:26:30;;;;;;;2.83;1.15;;;;;;;17.11;51.11;100516.38;694128;28;23562;-63
2021/05/25 00:26:51;;;;;;;1.55;1.20;;;;;;;17.11;50.39;100526.44;693945;28;22351;-63
2021/05/25 00:27:12;;;;;;;1.17;1.15;;;;;;;17.10;50.55;100516.59;694349;28;22835;-63
2021/05/25 00:27:34;;;;;;;1.17;1.08;;;;;;;17.08;50.21;100511.38;696971;28;1599;-63
2021/05/25 00:27:55;;;;;;;1.80;1.10;;;;;;;17.08;50.24;100519.56;694362;28;44475;-63
2021/05/25 00:28:16;;;;;;;1.40;1.00;;;;;;;17.06;49.88;100527.13;692846;28;22392;-63
2021/05/25 00:28:38;;;;;;;1.38;1.00;;;;;;;17.07;49.50;100522.50;693286;28;13427;-63
2021/05/25 00:28:59;;;;;;;1.25;1.10;;;;;;;17.05;49.39;100520.00;694007;28;7480;-63
2021/05/25 00:29:20;;;;;;;1.10;1.10;;;;;;;17.04;49.66;100521.06;693246;28;23525;-63
2021/05/25 00:29:41;;;;;;;1.00;1.00;;;;;;;17.02;49.35;100517.72;692985;28;44377;-63
2021/05/25 00:30:04;;;;;;;1.23;1.20;;;;;;;17.01;49.71;100526.16;694083;28;22394;-63
2021/05/25 00:30:25;;;;;;;2.00;1.20;;;;;;;17.00;49.92;100522.56;692677;28;45284;-63
2021/05/25 00:30:46;;;;;;;1.20;1.08;;;;;;;17.01;49.84;100528.88;694160;28;23447;-63
2021/05/25 00:31:07;;;;;;;1.00;1.00;;;;;;;17.01;49.64;100535.16;694220;28;23443;-63
2021/05/25 00:31:28;;;;;;;1.20;1.20;;;;;;;17.01;49.69;100532.41;694120;28;34524;-63
2021/05/25 00:31:49;;;;;;;1.27;1.27;;;;;;;17.01;49.82;100526.97;694586;28;5421;-64
2021/05/25 00:32:11;;;;;;;1.10;1.10;;;;;;;17.01;49.82;100529.69;693816;28;23387;-63
2021/05/25 00:32:32;;;;;;;1.65;1.10;;;;;;;17.01;49.51;100535.16;693169;28;45247;-63
2021/05/25 00:32:53;;;;;;;1.23;1.20;;;;;;;17.01;49.96;100535.16;694300;28;11848;-63
2021/05/25 00:33:14;;;;;;;1.38;1.27;;;;;;;17.01;49.46;100524.25;694617;28;18193;-63
2021/05/25 00:33:35;;;;;;;1.20;1.20;;;;;;;17.02;49.53;100533.25;694009;28;23449;-63
2021/05/25 00:33:57;;;;;;;1.45;1.02;;;;;;;17.02;49.58;100535.97;693977;28;23452;-63
2021/05/25 00:34:18;;;;;;;1.95;1.00;;;;;;;17.02;49.54;100530.53;694365;28;23490;-63
2021/05/25 00:34:39;;;;;;;1.23;1.15;;;;;;;17.00;49.36;100532.66;693632;28;23437;-63
2021/05/25 00:35:00;;;;;;;1.30;1.20;;;;;;;17.00;49.30;100535.38;693913;28;22143;-63
2021/05/25 00:35:21;;;;;;;1.45;1.10;;;;;;;17.00;49.28;100551.75;694594;28;7751;-63
2021/05/25 00:35:43;;;;;;;1.80;1.20;;;;;;;17.00;49.46;100538.94;694119;28;22413;-64
2021/05/25 00:36:09;;;;;;;1.08;1.08;;;;;;;16.99;49.35;100531.81;693117;28;34370;-64
2021/05/25 00:36:40;;;;;;;1.55;1.08;;;;;;;16.99;49.15;100537.28;691224;28;98544;-63
2021/05/25 00:37:01;;;;;;;1.00;1.00;;;;;;;16.99;49.02;100540.00;694536;28;15748;-63
2021/05/25 00:37:22;;;;;;;1.35;1.10;;;;;;;17.00;49.16;100532.66;693396;28;45413;-63
2021/05/25 00:37:44;;;;;;;2.35;1.15;;;;;;;17.00;49.04;100535.38;694312;28;20113;-63
2021/05/25 00:38:05;;;;;;;1.27;1.17;;;;;;;16.98;49.44;100535.59;695073;28;1487;-63
2021/05/25 00:38:27;;;;;;;1.10;1.00;;;;;;;17.00;49.33;100543.56;694302;28;11191;-63
2021/05/25 00:38:48;;;;;;;1.10;1.00;;;;;;;16.98;48.90;100534.78;693257;28;47569;-63
2021/05/25 00:39:09;;;;;;;2.08;1.10;;;;;;;16.97;49.02;100535.81;693771;28;23563;-63
2021/05/25 00:39:30;;;;;;;1.20;1.05;;;;;;;16.96;49.15;100534.16;693622;28;22395;-63
2021/05/25 00:39:51;;;;;;;1.20;1.10;;;;;;;16.95;49.11;100540.69;694231;28;21056;-63
2021/05/25 00:40:13;;;;;;;1.20;1.10;;;;;;;16.95;49.15;100540.69;693435;28;23508;-63
2021/05/25 00:40:37;;;;;;;2.33;1.10;;;;;;;16.93;49.39;100533.53;693684;28;38706;-63
2021/05/25 00:40:58;;;;;;;1.20;1.10;;;;;;;16.95;49.05;100537.94;694822;28;1362;-63
2021/05/25 00:41:20;;;;;;;1.27;1.10;;;;;;;16.95;49.11;100541.50;693910;28;23729;-63
2021/05/25 00:41:41;;;;;;;1.30;1.00;;;;;;;16.94;49.01;100537.09;693246;28;44409;-63
2021/05/25 00:42:02;;;;;;;1.13;1.00;;;;;;;16.92;49.22;100531.88;694610;28;17819;-64
2021/05/25 00:42:24;;;;;;;3.35;1.10;;;;;;;16.93;49.05;100540.91;694272;28;21664;-64
2021/05/25 00:42:46;;;;;;;2.00;1.40;;;;;;;16.91;48.91;100535.66;693637;28;47778;-64
2021/05/25 00:43:07;;;;;;;1.75;1.30;;;;;;;16.91;49.44;100534.81;693355;28;46727;-64
2021/05/25 00:43:28;;;;;;;1.55;1.30;;;;;;;16.90;48.95;100533.16;694179;28;22723;-64
2021/05/25 00:43:49;;;;;;;1.52;1.08;;;;;;;16.89;49.18;100535.03;694290;28;23142;-64
2021/05/25 00:44:11;;;;;;;1.02;1.00;;;;;;;16.89;49.36;100532.31;693739;28;22395;-64
2021/05/25 00:44:32;;;;;;;1.10;1.00;;;;;;;16.89;49.48;100532.31;694733;28;14237;-64
2021/05/25 00:44:53;;;;;;;1.70;1.10;;;;;;;16.87;49.11;100539.88;693367;28;42576;-63
2021/05/25 00:45:16;;;;;;;2.20;1.00;;;;;;;16.86;49.33;100531.94;694963;28;1850;-64
2021/05/25 00:45:38;;;;;;;2.17;1.00;;;;;;;16.84;49.59;100534.84;694509;28;14823;-64
2021/05/25 00:46:00;;;;;;;2.58;1.20;;;;;;;16.83;49.24;100537.81;694740;28;1580;-63
2021/05/25 00:46:23;;;;;;;1.25;1.20;;;;;;;16.83;49.66;100532.34;695268;28;1321;-64
2021/05/25 00:46:44;;;;;;;1.20;1.20;;;;;;;16.83;49.45;100544.09;694457;28;6173;-64
2021/05/25 00:47:05;;;;;;;1.15;1.05;;;;;;;16.81;49.65;100535.28;693747;28;39970;-64
2021/05/25 00:47:27;;;;;;;1.17;1.10;;;;;;;16.83;49.67;100535.91;694451;28;22475;-63
2021/05/25 00:47:48;;;;;;;1.50;1.10;;;;;;;16.83;49.11;100548.72;694697;28;22565;-64
2021/05/25 00:48:09;;;;;;;1.35;1.00;;;;;;;16.80;49.46;100541.78;695038;28;24403;-64
2021/05/25 00:48:30;;;;;;;1.38;1.20;;;;;;;16.80;49.05;100546.44;694220;28;41191;-64
2021/05/25 00:48:52;;;;;;;1.60;1.20;;;;;;;16.81;49.07;100540.75;694683;28;23425;-64
2021/05/25 00:49:13;;;;;;;2.38;1.20;;;;;;;16.81;49.37;100542.66;694998;28;23493;-63
2021/05/25 00:49:34;;;;;;;1.00;1.00;;;;;;;16.81;48.92;100545.38;693224;28;23772;-64
2021/05/25 00:49:56;;;;;;;2.70;1.10;;;;;;;16.78;49.43;100541.19;693931;28;24299;-64
2021/05/25 00:50:18;;;;;;;1.70;1.10;;;;;;;16.79;49.11;100547.50;692889;28;46358;-64
2021/05/25 00:50:40;;;;;;;1.50;1.20;;;;;;;16.76;49.24;100549.59;692581;28;65449;-64
2021/05/25 00:51:01;;;;;;;1.48;1.27;;;;;;;16.76;49.45;100544.16;694031;28;17388;-64
2021/05/25 00:51:23;;;;;;;1.23;1.20;;;;;;;16.77;49.32;100545.00;694697;28;1524;-64
2021/05/25 00:51:45;;;;;;;2.05;1.38;;;;;;;16.75;49.66;100547.94;693459;28;38601;-64
2021/05/25 00:52:06;;;;;;;2.25;1.35;;;;;;;16.76;49.50;100544.16;693138;28;44508;-64
2021/05/25 00:52:28;;;;;;;1.23;1.13;;;;;;;16.75;49.50;100547.94;693271;28;46323;-64
2021/05/25 00:52:50;;;;;;;1.20;1.20;;;;;;;16.76;49.73;100541.41;695061;28;1540;-64
2021/05/25 00:53:11;;;;;;;1.40;1.10;;;;;;;16.77;49.37;100539.56;692635;28;67742;-64
2021/05/25 00:53:33;;;;;;;2.03;0.95;;;;;;;16.77;49.66;100545.00;694296;28;21270;-64
2021/05/25 00:53:54;;;;;;;1.70;1.08;;;;;;;16.76;49.77;100543.31;694252;28;21280;-64
2021/05/25 00:54:15;;;;;;;2.53;1.05;;;;;;;16.75;49.36;100547.09;694123;28;21538;-64
2021/05/25 00:54:36;;;;;;;1.85;1.00;;;;;;;16.73;49.49;100541.03;695070;28;8242;-64
2021/05/25 00:54:58;;;;;;;1.13;1.13;;;;;;;16.73;49.66;100541.88;693420;28;21749;-64
2021/05/25 00:55:22;;;;;;;1.00;1.00;;;;;;;16.73;49.39;100550.03;694335;28;1451;-64
2021/05/25 00:55:43;;;;;;;1.40;1.30;;;;;;;16.72;49.77;100551.13;691337;28;82866;-64
2021/05/25 00:56:04;;;;;;;1.13;1.13;;;;;;;16.73;49.82;100551.94;693892;28;17096;-64
2021/05/25 00:56:26;;;;;;;1.30;1.20;;;;;;;16.72;50.02;100545.66;694073;28;18361;-64
2021/05/25 00:56:47;;;;;;;1.02;0.98;;;;;;;16.71;49.73;100549.44;693120;28;45939;-64
2021/05/25 00:57:09;;;;;;;0.95;0.95;;;;;;;16.71;50.28;100548.63;693950;28;23501;-64
2021/05/25 00:57:30;;;;;;;1.10;1.10;;;;;;;16.70;50.27;100549.66;694301;28;15259;-64
2021/05/25 00:57:51;;;;;;;1.73;1.10;;;;;;;16.69;49.93;100547.97;692849;28;44173;-64
2021/05/25 00:58:12;;;;;;;0.93;0.90;;;;;;;16.69;50.01;100548.84;689721;28;10807;-64
2021/05/25 00:58:34;;;;;;;1.15;1.02;;;;;;;16.68;50.43;100546.34;689120;28;16090;-64
2021/05/25 00:58:56;;;;;;;1.98;1.23;;;;;;;16.68;50.14;100543.59;688085;28;45448;-64
2021/05/25 00:59:18;;;;;;;1.98;1.10;;;;;;;16.68;50.20;100549.88;688491;28;46314;-64
2021/05/25 00:59:39;;;;;;;2.05;1.00;;;;;;;16.67;50.61;100542.75;690057;28;23510;-64
2021/05/25 01:00:01;;;;;;;1.35;1.13;;;;;;;16.65;50.41;100547.59;692085;28;46267;-64
2021/05/25 01:00:26;;;;;;;1.33;1.23;;;;;;;16.65;50.22;100544.06;694615;28;4315;-64
2021/05/25 01:00:48;;;;;;;1.00;1.00;;;;;;;16.65;50.36;100544.06;691242;28;104105;-64
2021/05/25 01:01:09;;;;;;;1.10;1.10;;;;;;;16.64;50.56;100545.09;693993;28;21542;-64
2021/05/25 01:01:30;;;;;;;1.17;1.10;;;;;;;16.63;50.81;100548.88;693757;28;22485;-64
2021/05/25 01:01:52;;;;;;;1.00;1.00;;;;;;;16.63;50.71;100546.16;693173;28;44597;-64
2021/05/25 01:02:14;;;;;;;1.10;1.10;;;;;;;16.64;50.44;100539.66;694640;28;1121;-64
2021/05/25 01:02:36;;;;;;;1.25;1.15;;;;;;;16.64;50.35;100543.19;695126;28;1460;-64
2021/05/25 01:02:57;;;;;;;1.30;1.30;;;;;;;16.65;50.34;100547.59;693302;28;39656;-64
2021/05/25 01:03:20;;;;;;;1.10;1.10;;;;;;;16.65;50.45;100546.78;694178;28;23888;-64
2021/05/25 01:03:42;;;;;;;1.10;1.00;;;;;;;16.64;50.50;100543.19;692468;28;67502;-63
2021/05/25 01:04:03;;;;;;;1.20;1.00;;;;;;;16.64;50.63;100536.91;694364;28;22403;-64
2021/05/25 01:04:24;;;;;;;1.50;1.17;;;;;;;16.63;50.66;100544.28;693996;28;21558;-63
2021/05/25 01:04:45;;;;;;;1.05;1.05;;;;;;;16.64;50.64;100539.66;694015;28;18745;-64
2021/05/25 01:05:09;;;;;;;1.10;1.00;;;;;;;16.64;51.09;100542.38;694148;28;24283;-64
2021/05/25 01:05:31;;;;;;;0.90;0.90;;;;;;;16.64;50.77;100547.81;690578;28;113669;-63
2021/05/25 01:05:52;;;;;;;1.33;1.23;;;;;;;16.62;51.32;100537.13;693799;28;22387;-64
2021/05/25 01:06:13;;;;;;;1.10;1.10;;;;;;;16.62;50.93;100541.75;694246;28;11647;-64
2021/05/25 01:06:36;;;;;;;1.00;1.00;;;;;;;16.59;51.36;100537.59;694441;28;24655;-64
2021/05/25 01:06:57;;;;;;;1.00;1.00;;;;;;;16.57;51.29;100536.97;692419;28;69547;-63
2021/05/25 01:07:20;;;;;;;1.00;1.00;;;;;;;16.54;51.11;100535.53;694875;28;1470;-64
2021/05/25 01:07:41;;;;;;;1.20;1.10;;;;;;;16.56;51.26;100543.47;694052;28;22412;-64
2021/05/25 01:08:03;;;;;;;1.08;1.08;;;;;;;16.55;51.25;100531.75;693824;28;15537;-63
2021/05/25 01:08:25;;;;;;;2.08;1.10;;;;;;;16.55;51.50;100545.38;694453;28;1441;-64
2021/05/25 01:08:46;;;;;;;1.00;1.00;;;;;;;16.57;51.63;100539.72;693631;28;31323;-64
2021/05/25 01:09:09;;;;;;;1.45;1.20;;;;;;;16.57;51.47;100542.44;694876;28;1473;-64
2021/05/25 01:09:32;;;;;;;1.45;1.00;;;;;;;16.55;51.57;100533.63;692785;28;38356;-63
2021/05/25 01:09:55;;;;;;;1.58;1.10;;;;;;;16.54;51.65;100543.69;692453;28;68541;-64
2021/05/25 01:10:22;;;;;;;1.20;1.10;;;;;;;16.52;51.65;100543.09;691878;28;65831;-64
2021/05/25 01:10:49;;;;;;;1.30;1.20;;;;;;;16.52;51.78;100542.25;689913;28;137555;-64
2021/05/25 01:11:10;;;;;;;1.20;1.10;;;;;;;16.51;52.04;100546.03;690143;28;136059;-64
2021/05/25 01:11:34;;;;;;;1.30;1.17;;;;;;;16.49;51.99;100545.41;693972;28;21498;-64
2021/05/25 01:11:55;;;;;;;1.02;1.02;;;;;;;16.46;52.10;100549.44;692055;28;93257;-64
2021/05/25 01:12:16;;;;;;;1.08;1.08;;;;;;;16.44;52.72;100550.69;694639;28;22467;-64
2021/05/25 01:12:46;;;;;;;1.10;1.10;;;;;;;16.43;52.63;100544.41;695203;28;12210;-64
2021/05/25 01:13:12;;;;;;;1.42;1.20;;;;;;;16.40;52.67;100540.22;690947;28;139211;-63
2021/05/25 01:13:40;;;;;;;1.20;1.10;;;;;;;16.39;52.84;100548.63;690475;28;138704;-64
2021/05/25 01:14:03;;;;;;;1.23;1.10;;;;;;;16.39;53.00;100545.91;690755;28;137831;-64
2021/05/25 01:14:25;;;;;;;1.77;1.10;;;;;;;16.38;52.80;100544.25;693156;28;70391;-64
2021/05/25 01:14:52;;;;;;;1.60;1.10;;;;;;;16.37;52.77;100540.66;692903;28;69467;-64
2021/05/25 01:15:15;;;;;;;1.20;1.10;;;;;;;16.35;53.26;100541.97;691003;28;138191;-64
2021/05/25 01:15:36;;;;;;;1.13;1.10;;;;;;;16.34;52.88;100538.38;692832;28;61880;-64
2021/05/25 01:15:58;;;;;;;1.10;1.10;;;;;;;16.34;53.20;100537.56;693398;28;44390;-64
2021/05/25 01:16:21;;;;;;;1.10;1.10;;;;;;;16.33;53.35;100544.06;694601;28;21611;-64
2021/05/25 01:16:42;;;;;;;1.00;1.00;;;;;;;16.32;53.04;100545.97;692310;28;93149;-64
2021/05/25 01:17:04;;;;;;;1.60;1.20;;;;;;;16.31;53.23;100538.81;695134;28;20386;-64
2021/05/25 01:17:25;;;;;;;1.67;1.30;;;;;;;16.32;53.32;100543.22;695002;28;22483;-64
2021/05/25 01:17:57;;;;;;;1.38;1.27;;;;;;;16.31;53.50;100538.81;692848;28;60682;-64
2021/05/25 01:18:19;;;;;;;1.13;1.13;;;;;;;16.31;52.99;100544.28;692503;28;70322;-64
2021/05/25 01:18:40;;;;;;;1.10;1.10;;;;;;;16.33;53.01;100538.59;694534;28;1506;-64
2021/05/25 01:19:02;;;;;;;1.20;1.10;;;;;;;16.33;53.19;100541.31;693938;28;23848;-64
2021/05/25 01:19:24;;;;;;;3.00;1.17;;;;;;;16.32;53.20;100537.78;693676;28;9013;-63
2021/05/25 01:19:45;;;;;;;1.80;1.10;;;;;;;16.32;53.21;100535.06;693474;28;34268;-64
2021/05/25 01:20:07;;;;;;;1.00;1.00;;;;;;;16.32;53.03;100537.78;694806;28;10351;-64
2021/05/25 01:20:30;;;;;;;1.17;1.10;;;;;;;16.32;53.22;100539.69;692821;28;46601;-64
2021/05/25 01:20:52;;;;;;;1.33;1.00;;;;;;;16.31;53.59;100535.28;692988;28;50561;-64
2021/05/25 01:21:14;;;;;;;1.10;1.05;;;;;;;16.31;53.38;100530.66;693665;28;33697;-63
2021/05/25 01:21:36;;;;;;;1.20;1.10;;;;;;;16.29;53.61;100538.22;693036;28;44974;-64
2021/05/25 01:21:57;;;;;;;2.17;1.20;;;;;;;16.29;53.55;100534.66;693272;28;46759;-64
2021/05/25 01:22:18;;;;;;;1.30;1.20;;;;;;;16.29;53.67;100537.38;693617;28;23517;-64
2021/05/25 01:22:39;;;;;;;1.17;1.10;;;;;;;16.30;53.53;100530.88;693943;28;14040;-64
2021/05/25 01:23:01;;;;;;;1.00;1.00;;;;;;;16.29;53.81;100537.38;693257;28;22491;-63
2021/05/25 01:23:22;;;;;;;1.45;1.23;;;;;;;16.28;53.79;100533.81;693673;28;29165;-64
2021/05/25 01:23:43;;;;;;;1.30;1.20;;;;;;;16.27;53.78;100537.59;694109;28;20532;-64
2021/05/25 01:24:05;;;;;;;1.88;1.10;;;;;;;16.28;54.36;100538.44;694745;28;1146;-64
2021/05/25 01:24:29;;;;;;;1.30;1.00;;;;;;;16.27;54.31;100531.31;693271;28;40460;-64
2021/05/25 01:24:51;;;;;;;1.10;1.10;;;;;;;16.27;54.49;100534.03;691159;28;93154;-64
2021/05/25 01:25:15;;;;;;;1.13;1.13;;;;;;;16.26;54.05;100533.19;695049;28;1635;-63
2021/05/25 01:25:38;;;;;;;1.20;1.20;;;;;;;16.29;54.01;100540.13;694566;28;67488;-64
2021/05/25 01:25:59;;;;;;;1.08;1.08;;;;;;;16.27;54.33;100529.44;695906;28;68402;-64
2021/05/25 01:26:20;;;;;;;1.40;1.13;;;;;;;16.28;54.25;100535.72;698283;28;1290;-64
2021/05/25 01:26:41;;;;;;;1.45;1.20;;;;;;;16.26;54.07;100530.47;693364;28;42166;-64
2021/05/25 01:27:03;;;;;;;1.60;1.30;;;;;;;16.27;54.38;100528.56;690665;28;22096;-64
2021/05/25 01:27:24;;;;;;;1.30;1.20;;;;;;;16.24;54.64;100537.19;690064;28;45884;-64
2021/05/25 01:27:50;;;;;;;1.27;1.27;;;;;;;16.21;54.53;100536.59;690607;28;21487;-64
2021/05/25 01:28:12;;;;;;;1.75;1.30;;;;;;;16.21;54.85;100528.41;686775;28;138451;-64
2021/05/25 01:28:34;;;;;;;1.23;1.15;;;;;;;16.22;54.37;100529.25;691338;28;46418;-64
2021/05/25 01:28:55;;;;;;;1.15;1.10;;;;;;;16.21;54.37;100531.13;693763;28;45280;-64
2021/05/25 01:29:16;;;;;;;1.20;1.10;;;;;;;16.22;54.87;100529.25;696447;28;22644;-64
2021/05/25 01:29:40;;;;;;;1.17;1.13;;;;;;;16.21;54.95;100531.13;695168;28;24380;-64
2021/05/25 01:30:01;;;;;;;1.30;1.10;;;;;;;16.20;54.90;100532.19;692191;28;68641;-64
2021/05/25 01:30:27;;;;;;;1.30;1.20;;;;;;;16.20;54.47;100534.09;694145;28;14852;-64
2021/05/25 01:30:52;;;;;;;1.25;1.20;;;;;;;16.19;54.47;100525.09;693190;28;38257;-64
2021/05/25 01:31:15;;;;;;;2.15;1.40;;;;;;;16.20;54.75;100534.09;694132;28;14973;-64
2021/05/25 01:31:36;;;;;;;1.00;1.00;;;;;;;16.19;54.74;100535.97;693116;28;45618;-64
2021/05/25 01:31:57;;;;;;;1.20;1.10;;;;;;;16.20;55.34;100525.91;693181;28;44634;-64
2021/05/25 01:32:18;;;;;;;1.60;1.30;;;;;;;16.20;55.21;100528.63;692983;28;47141;-64
2021/05/25 01:32:39;;;;;;;2.38;1.20;;;;;;;16.19;54.87;100527.81;694996;28;1570;-64
2021/05/25 01:33:01;;;;;;;2.20;1.10;;;;;;;16.21;55.30;100536.59;694178;28;9075;-64
2021/05/25 01:33:24;;;;;;;1.30;1.10;;;;;;;16.22;54.85;100534.69;693093;28;45413;-64
2021/05/25 01:33:45;;;;;;;1.13;1.13;;;;;;;16.20;55.21;100532.19;693358;28;44401;-64
2021/05/25 01:34:06;;;;;;;1.20;1.10;;;;;;;16.20;55.08;100536.81;693850;28;22441;-64
2021/05/25 01:34:27;;;;;;;1.00;1.00;;;;;;;16.20;55.12;100534.91;693829;28;21305;-64
2021/05/25 01:34:49;;;;;;;1.00;1.00;;;;;;;16.20;55.22;100531.34;693100;28;45072;-64
2021/05/25 01:35:11;;;;;;;1.25;1.15;;;;;;;16.19;54.78;100535.13;694593;28;1364;-64
2021/05/25 01:35:33;;;;;;;1.45;1.20;;;;;;;16.18;54.88;100533.47;693042;28;46361;-63
2021/05/25 01:35:55;;;;;;;2.33;1.25;;;;;;;16.16;55.27;100530.97;693485;28;38560;-64
2021/05/25 01:36:16;;;;;;;2.17;1.25;;;;;;;16.15;54.85;100532.00;693781;28;32395;-64
2021/05/25 01:36:38;;;;;;;2.67;1.30;;;;;;;16.15;55.25;100542.91;694623;28;14020;-64
2021/05/25 01:36:59;;;;;;;1.35;1.20;;;;;;;16.15;55.25;100540.19;693119;28;45270;-64
2021/05/25 01:37:21;;;;;;;1.90;1.17;;;;;;;16.12;55.60;100537.91;693626;28;23864;-64
2021/05/25 01:37:43;;;;;;;1.23;1.10;;;;;;;16.11;55.53;100538.97;693048;28;46341;-64
2021/05/25 01:38:06;;;;;;;1.90;1.20;;;;;;;16.10;55.29;100536.47;693889;28;21584;-64
2021/05/25 01:38:27;;;;;;;2.75;1.40;;;;;;;16.08;55.65;100542.13;691367;28;92267;-64
2021/05/25 01:38:49;;;;;;;2.00;1.20;;;;;;;16.06;55.92;100536.03;693291;28;22408;-64
2021/05/25 01:39:10;;;;;;;2.55;1.00;;;;;;;16.05;56.08;100539.84;693880;28;22368;-64
2021/05/25 01:39:31;;;;;;;3.10;1.20;;;;;;;16.04;55.90;100533.53;692119;28;43887;-64
2021/05/25 01:39:54;;;;;;;1.90;1.17;;;;;;;16.02;56.20;100543.00;694542;28;1478;-64
2021/05/25 01:40:16;;;;;;;1.33;1.05;;;;;;;16.02;55.91;100543.81;694464;28;1449;-63
2021/05/25 01:40:43;;;;;;;1.30;1.20;;;;;;;16.02;55.79;100534.84;691456;28;80780;-64
2021/05/25 01:41:06;;;;;;;1.40;1.30;;;;;;;16.01;56.15;100535.88;694421;28;1310;-64
2021/05/25 01:41:27;;;;;;;1.30;1.20;;;;;;;16.01;55.96;100539.44;692193;28;68355;-64
2021/05/25 01:41:51;;;;;;;1.10;1.10;;;;;;;16.00;55.97;100540.50;693593;28;23476;-64
2021/05/25 01:42:12;;;;;;;1.17;1.10;;;;;;;15.98;56.39;100541.75;692101;28;70658;-64
2021/05/25 01:42:35;;;;;;;1.23;1.13;;;;;;;15.98;56.10;100539.03;693141;28;44409;-64
2021/05/25 01:42:56;;;;;;;1.27;1.20;;;;;;;15.97;56.44;100540.94;692380;28;45134;-64
2021/05/25 01:43:18;;;;;;;1.20;1.20;;;;;;;15.96;56.43;100541.97;694514;28;1499;-64